Bellevue, Wisconsin
Current Conditions -  °F | °C
As of 6:53 AM on Thursday 23 Oct 2014 (Local Time) from KGRB Reporting Station
Clear Clear  
Wind Chill: 32°   Ceiling: Unl
Heat Index: 37°   Visibility: 9mi
Dew Point: 35°   Wind: 6mph
Humidity: 93%   Direction: 170°S
Pressure: 30.17"   Gusts: NA
Location:  44.4827°N, 87.887°W
Report Text: KGRB 231153Z 17005KT 9SM CLR 03/02 A3017 RMK AO2 SLP224 T00280017 10039 20022 58009
Loading
Personal Weather Stations






























Interactive Weather Map
Tropical Storm Tracking
New forecast layout! Learn more

10-Day Weather Forecast

Advertisements
Track Severe Weather on mobile